createdAt,value
2022-12-15T00:01:40.629Z,15.47
2022-12-15T00:04:26.135Z,12.27
2022-12-15T00:07:11.717Z,9.13
2022-12-15T00:09:57.160Z,7.73
2022-12-15T00:12:42.730Z,8.73
2022-12-15T00:15:29.443Z,13.60
2022-12-15T00:18:14.905Z,14.50
2022-12-15T00:21:00.493Z,14.63
2022-12-15T00:23:46.055Z,12.23
2022-12-15T00:26:31.543Z,8.43
2022-12-15T00:29:17.186Z,7.63
2022-12-15T00:32:03.773Z,9.00
2022-12-15T00:34:49.371Z,9.07
2022-12-15T00:37:34.920Z,6.53
2022-12-15T00:40:04.935Z,7.23
2022-12-15T00:42:32.853Z,7.13
2022-12-15T00:45:00.808Z,7.43
2022-12-15T00:47:29.134Z,7.67
2022-12-15T00:50:14.626Z,8.43
2022-12-15T00:53:00.211Z,8.43
2022-12-15T00:55:45.801Z,8.03
2022-12-15T00:58:31.469Z,6.07
2022-12-15T01:01:16.986Z,5.57
2022-12-15T01:04:03.685Z,6.20
2022-12-15T01:06:49.371Z,6.67
2022-12-15T01:09:34.897Z,7.70
2022-12-15T01:12:20.520Z,5.63
2022-12-15T01:15:06.283Z,5.03
2022-12-15T01:17:51.629Z,5.70
2022-12-15T01:20:21.040Z,5.70
2022-12-15T01:22:49.657Z,5.40
2022-12-15T01:25:18.211Z,5.73
2022-12-15T01:27:46.791Z,5.10
2022-12-15T01:30:16.029Z,6.00
2022-12-15T01:32:46.230Z,5.97
2022-12-15T01:35:14.841Z,23.77
2022-12-15T01:37:44.201Z,22.10
2022-12-15T01:40:31.655Z,19.23
2022-12-15T01:42:59.659Z,21.13
2022-12-15T01:45:42.704Z,22.93
2022-12-15T01:48:11.296Z,16.17
2022-12-15T01:50:42.124Z,10.67
2022-12-15T01:53:12.214Z,11.07
2022-12-15T01:55:41.615Z,9.60
2022-12-15T01:58:12.183Z,8.27
2022-12-15T02:00:40.313Z,6.93
2022-12-15T02:03:09.208Z,5.27
2022-12-15T02:05:37.371Z,5.53
2022-12-15T02:08:06.132Z,6.43
2022-12-15T02:10:43.110Z,7.73
2022-12-15T02:13:14.058Z,7.70
2022-12-15T02:15:44.074Z,8.53
2022-12-15T02:18:16.779Z,7.13
2022-12-15T02:20:51.904Z,7.83
2022-12-15T02:23:37.718Z,5.67
2022-12-15T02:26:20.904Z,7.17
2022-12-15T02:28:53.942Z,7.77
2022-12-15T02:31:41.707Z,6.27
2022-12-15T02:34:13.107Z,6.20
2022-12-15T02:36:44.511Z,6.60
2022-12-15T02:39:13.445Z,5.40
2022-12-15T02:41:42.885Z,4.97
2022-12-15T02:44:13.554Z,5.33
2022-12-15T02:46:55.276Z,5.73
2022-12-15T02:49:27.972Z,6.27
2022-12-15T02:52:01.740Z,7.23
2022-12-15T02:54:37.093Z,5.63
2022-12-15T02:57:07.264Z,5.80
2022-12-15T02:59:39.319Z,5.90
2022-12-15T03:02:10.107Z,5.70
2022-12-15T03:04:38.226Z,5.80
2022-12-15T03:07:07.519Z,5.20
2022-12-15T03:09:35.516Z,6.10
2022-12-15T03:12:03.471Z,5.50
2022-12-15T03:14:31.403Z,5.80
2022-12-15T03:16:59.622Z,5.53
2022-12-15T03:19:29.133Z,6.40
2022-12-15T03:21:57.057Z,6.37
2022-12-15T03:24:24.989Z,6.33
2022-12-15T03:26:53.500Z,5.73
2022-12-15T03:29:21.456Z,5.13
2022-12-15T03:31:49.864Z,5.37
2022-12-15T03:34:18.424Z,6.07
2022-12-15T03:36:48.046Z,5.67
2022-12-15T03:39:16.040Z,5.83
2022-12-15T03:41:43.949Z,4.90
2022-12-15T03:44:11.897Z,5.20
2022-12-15T03:46:39.856Z,5.43
2022-12-15T03:49:08.205Z,5.40
2022-12-15T03:51:36.205Z,4.97
2022-12-15T03:54:05.623Z,5.23
2022-12-15T03:56:33.783Z,5.60
2022-12-15T03:59:01.737Z,5.33
2022-12-15T04:01:30.723Z,4.57
2022-12-15T04:04:01.197Z,5.33
2022-12-15T04:06:29.606Z,4.60
2022-12-15T04:08:57.561Z,4.87
2022-12-15T04:11:26.967Z,5.97
2022-12-15T04:13:54.883Z,5.10
2022-12-15T04:16:22.940Z,5.77
2022-12-15T04:19:11.212Z,5.30
2022-12-15T04:21:38.122Z,5.00
2022-12-15T04:24:23.547Z,4.90
2022-12-15T04:27:10.172Z,5.10
2022-12-15T04:29:55.784Z,5.30
2022-12-15T04:32:41.722Z,5.20
2022-12-15T04:35:27.190Z,4.83
2022-12-15T04:38:12.974Z,4.70
2022-12-15T04:40:58.526Z,4.83
2022-12-15T04:43:45.242Z,5.03
2022-12-15T04:46:30.720Z,4.73
2022-12-15T04:49:16.410Z,5.10
2022-12-15T04:52:01.990Z,4.77
2022-12-15T04:54:47.794Z,4.23
2022-12-15T04:57:33.287Z,4.77
2022-12-15T05:00:19.836Z,5.13
2022-12-15T05:03:05.411Z,5.00
2022-12-15T05:05:51.113Z,4.90
2022-12-15T05:08:36.678Z,5.33
2022-12-15T05:11:22.285Z,5.23
2022-12-15T05:14:07.795Z,4.87
2022-12-15T05:16:55.073Z,5.43
2022-12-15T05:19:41.045Z,7.77
2022-12-15T05:22:26.591Z,9.73
2022-12-15T05:25:14.756Z,12.17
2022-12-15T05:28:00.446Z,13.60
2022-12-15T05:30:47.080Z,17.33
2022-12-15T05:33:16.503Z,15.97
2022-12-15T05:35:44.716Z,14.57
2022-12-15T05:38:12.938Z,11.50
2022-12-15T05:40:43.148Z,9.80
2022-12-15T05:43:13.089Z,18.90
2022-12-15T05:45:41.476Z,27.53
2022-12-15T05:48:09.709Z,32.20
2022-12-15T05:50:39.109Z,34.20
2022-12-15T05:53:07.032Z,27.00
2022-12-15T05:55:35.037Z,25.17
2022-12-15T05:58:03.004Z,24.07
2022-12-15T06:00:30.996Z,21.87
2022-12-15T06:02:59.559Z,23.13
2022-12-15T06:05:27.542Z,24.63
2022-12-15T06:07:57.058Z,28.63
2022-12-15T06:10:25.044Z,27.03
2022-12-15T06:12:52.966Z,27.90
2022-12-15T06:15:21.103Z,27.37
2022-12-15T06:17:49.675Z,28.20
2022-12-15T06:20:18.021Z,29.63
2022-12-15T06:22:49.907Z,30.23
2022-12-15T06:25:19.775Z,31.13
2022-12-15T06:27:47.725Z,26.93
2022-12-15T06:30:16.606Z,25.77
2022-12-15T06:32:44.534Z,23.90
2022-12-15T06:35:12.459Z,21.77
2022-12-15T06:37:40.396Z,19.60
2022-12-15T06:40:09.128Z,17.13
2022-12-15T06:42:38.474Z,17.73
2022-12-15T06:45:06.753Z,16.97
2022-12-15T06:47:34.757Z,17.63
2022-12-15T06:50:02.737Z,15.17
2022-12-15T06:52:30.917Z,16.07
2022-12-15T06:54:58.841Z,14.20
2022-12-15T06:57:26.799Z,13.73
2022-12-15T06:59:56.180Z,12.47
2022-12-15T07:02:28.871Z,11.80
2022-12-15T07:04:57.301Z,9.90
2022-12-15T07:07:25.317Z,8.93
2022-12-15T07:09:53.354Z,8.80
2022-12-15T07:12:21.280Z,7.37
2022-12-15T07:14:53.710Z,7.47
2022-12-15T07:17:24.402Z,7.13
2022-12-15T07:19:55.426Z,6.83
2022-12-15T07:22:23.429Z,7.60
2022-12-15T07:24:51.376Z,6.90
2022-12-15T07:27:19.472Z,7.27
2022-12-15T07:29:47.437Z,6.37
2022-12-15T07:32:15.806Z,6.63
2022-12-15T07:34:45.245Z,7.23
2022-12-15T07:37:16.368Z,6.13
2022-12-15T07:39:44.545Z,5.70
2022-12-15T07:42:12.507Z,5.80
2022-12-15T07:44:41.172Z,5.83
2022-12-15T07:47:09.110Z,6.23
2022-12-15T07:49:37.065Z,5.57
2022-12-15T07:52:06.566Z,5.77
2022-12-15T07:54:35.090Z,5.50
2022-12-15T07:57:03.086Z,5.47
2022-12-15T07:59:31.086Z,5.60
2022-12-15T08:02:00.779Z,6.30
2022-12-15T08:04:28.870Z,5.10
2022-12-15T08:06:56.880Z,4.80
2022-12-15T08:09:26.506Z,5.50
2022-12-15T08:11:54.458Z,4.60
2022-12-15T08:14:22.974Z,4.87
2022-12-15T08:16:51.478Z,4.73
2022-12-15T08:19:19.596Z,5.00
2022-12-15T08:21:48.588Z,5.00
2022-12-15T08:24:17.297Z,4.87
2022-12-15T08:26:50.017Z,5.33
2022-12-15T08:29:49.562Z,4.57
2022-12-15T08:32:07.028Z,4.83
2022-12-15T08:34:35.807Z,5.73
2022-12-15T08:37:03.806Z,4.87
2022-12-15T08:39:31.850Z,4.73
2022-12-15T08:42:01.201Z,5.47
2022-12-15T08:44:29.286Z,5.10
2022-12-15T08:46:57.242Z,5.43
2022-12-15T08:49:25.976Z,6.67
2022-12-15T08:51:53.983Z,6.83
2022-12-15T08:54:21.949Z,9.50
2022-12-15T08:56:50.255Z,10.87
2022-12-15T08:59:20.439Z,10.07
2022-12-15T09:01:48.730Z,11.57
2022-12-15T09:04:17.289Z,9.90
2022-12-15T09:06:50.579Z,10.43
2022-12-15T09:09:19.983Z,10.80
2022-12-15T09:11:51.521Z,10.70
2022-12-15T09:14:27.257Z,11.33
2022-12-15T09:16:57.869Z,9.67
2022-12-15T09:19:26.395Z,10.40
2022-12-15T09:21:57.012Z,9.43
2022-12-15T09:24:34.393Z,9.90
2022-12-15T09:27:03.597Z,10.13
2022-12-15T09:29:33.453Z,9.07
2022-12-15T09:32:01.744Z,9.50
2022-12-15T09:34:30.182Z,8.33
2022-12-15T09:36:58.531Z,9.00
2022-12-15T09:39:26.766Z,10.23
2022-12-15T09:41:56.162Z,9.63
2022-12-15T09:44:26.565Z,9.53
2022-12-15T09:47:06.092Z,8.53
2022-12-15T09:49:55.164Z,8.33
2022-12-15T09:52:25.121Z,8.40
2022-12-15T09:54:53.250Z,7.97
2022-12-15T09:57:34.558Z,8.50
2022-12-15T10:00:11.733Z,8.60
2022-12-15T10:02:52.626Z,8.90
2022-12-15T10:06:06.935Z,8.83
2022-12-15T10:08:23.307Z,10.60
2022-12-15T10:10:55.282Z,9.33
2022-12-15T10:13:25.510Z,9.73
2022-12-15T10:15:57.581Z,9.93
2022-12-15T10:18:32.741Z,10.17
2022-12-15T10:21:02.031Z,9.47
2022-12-15T10:23:30.473Z,9.10
2022-12-15T10:26:00.727Z,10.37
2022-12-15T10:28:38.679Z,9.27
2022-12-15T10:31:13.354Z,11.80
2022-12-15T10:33:50.324Z,11.33
2022-12-15T10:36:18.422Z,11.73
2022-12-15T10:38:50.498Z,11.07
2022-12-15T10:41:20.488Z,11.20
2022-12-15T10:43:50.190Z,11.20
2022-12-15T10:46:19.978Z,10.73
2022-12-15T10:48:51.233Z,9.90
2022-12-15T10:51:21.316Z,10.47
2022-12-15T10:53:51.321Z,12.27
2022-12-15T10:56:33.142Z,11.57
2022-12-15T10:59:06.925Z,11.30
2022-12-15T11:01:39.147Z,12.00
2022-12-15T11:04:31.287Z,12.00
2022-12-15T11:06:59.965Z,10.53
2022-12-15T11:09:30.045Z,12.37
2022-12-15T11:12:15.364Z,10.53
2022-12-15T11:14:45.722Z,9.50
2022-12-15T11:17:16.255Z,8.77
2022-12-15T11:19:50.033Z,8.57
2022-12-15T11:22:21.824Z,8.67
2022-12-15T11:24:51.765Z,8.00
2022-12-15T11:27:22.524Z,9.47
2022-12-15T11:29:58.470Z,8.77
2022-12-15T11:32:27.407Z,8.50
2022-12-15T11:34:56.907Z,8.17
2022-12-15T11:37:37.457Z,8.37
2022-12-15T11:40:15.599Z,7.63
2022-12-15T11:42:47.587Z,7.30
2022-12-15T11:45:20.053Z,7.53
2022-12-15T11:47:51.086Z,7.00
2022-12-15T11:50:25.066Z,6.07
2022-12-15T11:53:09.384Z,6.10
2022-12-15T11:55:42.422Z,7.10
2022-12-15T11:58:20.838Z,7.70
2022-12-15T12:00:52.211Z,6.27
2022-12-15T12:03:26.418Z,6.13
2022-12-15T12:06:05.525Z,4.80
2022-12-15T12:08:42.566Z,4.57
2022-12-15T12:11:14.880Z,5.10
2022-12-15T12:13:47.841Z,3.93
2022-12-15T12:16:29.118Z,4.70
2022-12-15T12:18:59.333Z,4.30
2022-12-15T12:21:31.318Z,4.70
2022-12-15T12:24:01.852Z,4.67
2022-12-15T12:26:33.723Z,4.43
2022-12-15T12:29:04.065Z,4.03
2022-12-15T12:31:35.960Z,3.67
2022-12-15T12:34:07.269Z,3.90
2022-12-15T12:36:36.984Z,3.83
2022-12-15T12:39:05.471Z,4.47
2022-12-15T12:41:37.688Z,4.33
2022-12-15T12:44:10.672Z,3.73
2022-12-15T12:46:43.099Z,4.30
2022-12-15T12:49:17.712Z,4.03
2022-12-15T12:51:53.777Z,3.77
2022-12-15T12:54:42.654Z,3.57
2022-12-15T12:57:34.615Z,4.50
2022-12-15T13:00:03.584Z,3.60
2022-12-15T13:02:45.243Z,3.50
2022-12-15T13:05:27.316Z,3.63
2022-12-15T13:07:57.621Z,3.87
2022-12-15T13:10:27.948Z,4.10
2022-12-15T13:12:56.339Z,4.47
2022-12-15T13:15:35.454Z,4.13
2022-12-15T13:18:07.434Z,3.20
2022-12-15T13:20:36.231Z,3.60
2022-12-15T13:23:34.766Z,3.77
2022-12-15T13:26:19.691Z,3.63
2022-12-15T13:28:51.972Z,3.00
2022-12-15T13:31:33.669Z,3.33
2022-12-15T13:34:28.791Z,3.23
2022-12-15T13:36:57.864Z,3.17
2022-12-15T13:39:56.379Z,3.00
2022-12-15T13:42:36.999Z,3.50
2022-12-15T13:45:16.343Z,3.03
2022-12-15T13:47:52.318Z,2.97
2022-12-15T13:50:26.275Z,3.17
2022-12-15T13:55:52.723Z,2.80
2022-12-15T13:58:23.032Z,2.83
2022-12-15T14:00:52.320Z,2.43
2022-12-15T14:03:21.722Z,2.50
2022-12-15T14:05:51.386Z,2.90
2022-12-15T14:08:19.933Z,2.20
2022-12-15T14:10:51.414Z,2.60
2022-12-15T14:13:23.878Z,2.60
2022-12-15T14:15:53.901Z,2.40
2022-12-15T14:18:27.254Z,2.70
2022-12-15T14:20:55.715Z,2.63
2022-12-15T14:23:26.143Z,2.43
2022-12-15T14:25:54.736Z,2.50
2022-12-15T14:28:28.302Z,2.60
2022-12-15T14:31:04.861Z,2.60
2022-12-15T14:33:34.270Z,2.63
2022-12-15T14:36:03.517Z,2.33
2022-12-15T14:38:33.531Z,2.53
2022-12-15T14:41:02.833Z,2.27
2022-12-15T14:43:34.249Z,2.37
2022-12-15T14:46:07.971Z,2.37
2022-12-15T14:51:26.408Z,2.40
2022-12-15T14:53:55.358Z,2.97
2022-12-15T14:59:21.049Z,2.87
2022-12-15T15:01:58.302Z,2.10
2022-12-15T15:03:06.093Z,2.13
2022-12-15T15:03:09.975Z,2.73
2022-12-15T15:04:29.378Z,2.63
2022-12-15T15:06:58.306Z,2.70
2022-12-15T15:09:27.267Z,2.40
2022-12-15T15:11:56.568Z,2.40
2022-12-15T15:14:28.107Z,2.50
2022-12-15T15:17:04.644Z,2.40
2022-12-15T15:19:37.661Z,2.60
2022-12-15T15:22:07.941Z,2.33
2022-12-15T15:24:37.704Z,2.47
2022-12-15T15:27:24.334Z,2.47
2022-12-15T15:30:07.948Z,2.93
2022-12-15T15:32:50.126Z,1.93
2022-12-15T15:35:19.161Z,2.23
2022-12-15T15:37:47.285Z,2.67
2022-12-15T15:40:16.223Z,2.57
2022-12-15T15:42:45.571Z,2.30
2022-12-15T15:45:15.844Z,2.73
2022-12-15T15:47:46.194Z,2.23
2022-12-15T15:50:15.052Z,2.30
2022-12-15T15:52:43.464Z,2.17
2022-12-15T15:55:14.958Z,2.10
2022-12-15T15:57:43.179Z,2.33
2022-12-15T16:00:23.048Z,1.70
2022-12-15T16:02:51.235Z,1.80
2022-12-15T16:05:21.072Z,1.63
2022-12-15T16:07:50.449Z,1.43
2022-12-15T16:10:19.450Z,1.90
2022-12-15T16:12:48.761Z,1.70
2022-12-15T16:15:17.853Z,1.70
2022-12-15T16:17:47.584Z,2.37
2022-12-15T16:20:16.635Z,1.60
2022-12-15T16:22:45.904Z,2.00
2022-12-15T16:25:15.686Z,1.27
2022-12-15T16:27:43.633Z,1.50
2022-12-15T16:30:16.196Z,1.37
2022-12-15T16:32:44.211Z,1.93
2022-12-15T16:35:14.045Z,1.70
2022-12-15T16:37:46.614Z,1.40
2022-12-15T16:40:15.669Z,1.60
2022-12-15T16:42:43.730Z,1.53
2022-12-15T16:45:15.623Z,1.93
2022-12-15T16:47:43.636Z,1.50
2022-12-15T16:50:16.139Z,1.83
2022-12-15T16:52:44.643Z,2.07
2022-12-15T16:55:19.951Z,1.43
2022-12-15T16:57:48.626Z,1.33
2022-12-15T17:00:17.955Z,1.87
2022-12-15T17:02:46.042Z,1.60
2022-12-15T17:05:16.135Z,1.43
2022-12-15T17:07:44.454Z,1.30
2022-12-15T17:10:17.504Z,2.90
2022-12-15T17:12:45.942Z,1.30
2022-12-15T17:15:17.660Z,1.03
2022-12-15T17:17:45.579Z,1.20
2022-12-15T17:20:33.910Z,1.20
2022-12-15T17:23:03.635Z,1.20
2022-12-15T17:26:09.239Z,1.00
2022-12-15T17:28:22.652Z,1.13
2022-12-15T17:30:51.703Z,1.27
2022-12-15T17:33:20.530Z,1.70
2022-12-15T17:35:50.405Z,1.67
2022-12-15T17:38:20.739Z,1.40
2022-12-15T17:40:49.443Z,1.30
2022-12-15T17:43:18.701Z,1.27
2022-12-15T17:45:46.971Z,1.37
2022-12-15T17:48:15.300Z,1.40
2022-12-15T17:50:43.296Z,1.90
2022-12-15T17:53:13.821Z,1.17
2022-12-15T17:55:41.741Z,1.50
2022-12-15T17:58:16.688Z,1.50
2022-12-15T18:00:49.221Z,1.53
2022-12-15T18:03:18.023Z,1.67
2022-12-15T18:05:47.756Z,1.20
2022-12-15T18:08:18.298Z,1.60
2022-12-15T18:10:47.444Z,1.13
2022-12-15T18:13:18.887Z,1.73
2022-12-15T18:15:47.333Z,1.67
2022-12-15T18:18:15.674Z,1.60
2022-12-15T18:20:43.905Z,1.67
2022-12-15T18:23:14.285Z,1.90
2022-12-15T18:25:44.192Z,1.43
2022-12-15T18:28:19.876Z,1.70
2022-12-15T18:30:48.722Z,1.63
2022-12-15T18:33:16.704Z,1.80
2022-12-15T18:35:46.053Z,1.83
2022-12-15T18:38:17.812Z,2.37
2022-12-15T18:40:48.980Z,2.90
2022-12-15T18:43:18.189Z,1.90
2022-12-15T18:45:46.634Z,2.20
2022-12-15T18:48:17.165Z,1.97
2022-12-15T18:50:45.516Z,2.20
2022-12-15T18:53:16.950Z,2.10
2022-12-15T18:55:44.923Z,2.07
2022-12-15T18:58:21.258Z,2.10
2022-12-15T19:00:49.815Z,2.20
2022-12-15T19:03:18.218Z,2.27
2022-12-15T19:05:46.169Z,2.70
2022-12-15T19:08:15.781Z,3.00
2022-12-15T19:10:48.610Z,2.67
2022-12-15T19:13:19.199Z,2.80
2022-12-15T19:15:47.213Z,3.00
2022-12-15T19:18:33.161Z,2.60
2022-12-15T19:21:18.800Z,2.80
2022-12-15T19:23:46.849Z,2.27
2022-12-15T19:26:14.808Z,2.47
2022-12-15T19:28:44.165Z,2.60
2022-12-15T19:31:12.181Z,2.57
2022-12-15T19:33:40.338Z,2.53
2022-12-15T19:36:12.303Z,2.53
2022-12-15T19:38:40.270Z,2.63
2022-12-15T19:41:08.308Z,2.50
2022-12-15T19:43:36.891Z,3.13
2022-12-15T19:46:06.758Z,2.93
2022-12-15T19:48:34.686Z,3.00
2022-12-15T19:51:02.632Z,3.27
2022-12-15T19:53:31.555Z,3.00
2022-12-15T19:56:01.498Z,2.97
2022-12-15T19:58:30.826Z,3.00
2022-12-15T20:01:01.324Z,2.83
2022-12-15T20:03:40.109Z,2.93
2022-12-15T20:06:13.059Z,2.77
2022-12-15T20:08:42.214Z,3.03
2022-12-15T20:11:11.558Z,3.30
2022-12-15T20:13:39.754Z,3.27
2022-12-15T20:16:08.855Z,3.17
2022-12-15T20:18:38.241Z,3.57
2022-12-15T20:21:07.626Z,3.03
2022-12-15T20:23:36.355Z,3.43
2022-12-15T20:26:04.329Z,3.60
2022-12-15T20:28:32.298Z,3.90
2022-12-15T20:31:00.308Z,3.87
2022-12-15T20:33:28.759Z,3.60
2022-12-15T20:35:58.489Z,3.87
2022-12-15T20:38:29.531Z,4.50
2022-12-15T20:40:58.001Z,4.43
2022-12-15T20:43:26.613Z,4.30
2022-12-15T20:45:59.339Z,3.90
2022-12-15T20:48:27.603Z,4.37
2022-12-15T20:50:55.577Z,3.93
2022-12-15T20:53:25.592Z,3.67
2022-12-15T20:55:53.906Z,4.17
2022-12-15T20:58:21.992Z,3.60
2022-12-15T21:00:51.707Z,4.57
2022-12-15T21:03:21.840Z,4.03
2022-12-15T21:05:50.736Z,4.73
2022-12-15T21:08:20.214Z,4.00
2022-12-15T21:10:49.616Z,4.63
2022-12-15T21:13:21.012Z,4.90
2022-12-15T21:15:49.065Z,5.30
2022-12-15T21:18:57.556Z,5.17
2022-12-15T21:21:08.278Z,5.93
2022-12-15T21:23:41.126Z,4.10
2022-12-15T21:26:12.267Z,5.53
2022-12-15T21:28:40.197Z,5.30
2022-12-15T21:31:08.462Z,5.40
2022-12-15T21:33:36.523Z,5.07
2022-12-15T21:36:04.571Z,5.60
2022-12-15T21:38:33.925Z,5.50
2022-12-15T21:41:04.111Z,5.90
2022-12-15T21:43:34.717Z,5.17
2022-12-15T21:46:03.427Z,5.07
2022-12-15T21:48:48.872Z,5.87
2022-12-15T21:51:17.689Z,5.53
2022-12-15T21:53:46.421Z,5.30
2022-12-15T21:56:17.971Z,5.07
2022-12-15T21:58:49.145Z,5.43
2022-12-15T22:01:17.607Z,6.00
2022-12-15T22:03:48.265Z,5.90
2022-12-15T22:06:18.977Z,5.70
2022-12-15T22:08:47.028Z,6.87
2022-12-15T22:11:19.947Z,6.17
2022-12-15T22:13:49.639Z,6.27
2022-12-15T22:16:17.698Z,6.30
2022-12-15T22:18:47.380Z,7.07
2022-12-15T22:21:15.755Z,7.00
2022-12-15T22:23:43.686Z,6.67
2022-12-15T22:26:18.734Z,6.83
2022-12-15T22:28:46.654Z,6.93
2022-12-15T22:31:16.029Z,7.07
2022-12-15T22:33:44.045Z,6.97
2022-12-15T22:36:11.994Z,7.27
2022-12-15T22:38:40.024Z,6.73
2022-12-15T22:41:14.111Z,7.23
2022-12-15T22:43:44.115Z,6.57
2022-12-15T22:46:13.706Z,7.13
2022-12-15T22:48:43.854Z,7.07
2022-12-15T22:51:13.349Z,5.93
2022-12-15T22:53:41.302Z,6.73
2022-12-15T22:56:13.685Z,5.90
2022-12-15T22:58:44.223Z,6.37
2022-12-15T23:01:12.481Z,6.63
2022-12-15T23:03:40.462Z,6.17
2022-12-15T23:06:09.895Z,6.10
2022-12-15T23:08:37.834Z,6.77
2022-12-15T23:11:23.047Z,7.10
2022-12-15T23:13:51.073Z,7.30
2022-12-15T23:16:21.979Z,6.67
2022-12-15T23:18:51.642Z,6.50
2022-12-15T23:21:22.302Z,6.43
2022-12-15T23:23:50.505Z,5.80
2022-12-15T23:26:19.624Z,6.13
2022-12-15T23:28:47.626Z,5.77
2022-12-15T23:31:15.640Z,5.73
2022-12-15T23:33:43.961Z,5.90
2022-12-15T23:36:12.551Z,6.67
2022-12-15T23:38:41.885Z,5.93
2022-12-15T23:41:15.558Z,6.83
2022-12-15T23:43:43.482Z,5.67
2022-12-15T23:46:11.453Z,6.37
2022-12-15T23:48:40.712Z,5.93
2022-12-15T23:51:09.601Z,6.07
2022-12-15T23:53:37.799Z,5.60
2022-12-15T23:56:11.485Z,6.10
2022-12-15T23:58:40.634Z,5.60
